Holbrook, Arizona
Current Conditions -  °F | °C
As of 3:56 PM on Wednesday 26 Nov 2014 (Local Time) from KINW Reporting Station
Clear Clear  
Wind Chill: 62°   Ceiling: Unl
Heat Index: 62°   Visibility: 10mi
Dew Point: 17°   Wind: 5mph
Humidity: 18%   Direction: 350°N
Pressure: 30.38"   Gusts: NA
Location:  34.9°N, 110.16°W
Report Text: KINW 262256Z AUTO 35004KT 10SM CLR 17/M08 A3038 RMK AO2 SLP279 T01671083
Loading
Personal Weather Stations






























Interactive Weather Map New forecast layout! Learn more

10-Day Weather Forecast

Advertisements
Track Severe Weather on mobile